createdAt,value
2022-08-09T00:01:54.876Z,60.84
2022-08-09T00:07:18.266Z,60.92
2022-08-09T00:12:51.595Z,62.13
2022-08-09T00:18:21.905Z,62.68
2022-08-09T00:23:57.861Z,63.02
2022-08-09T00:29:39.344Z,63.33
2022-08-09T00:34:58.599Z,63.16
2022-08-09T00:40:30.142Z,63.03
2022-08-09T00:46:01.038Z,63.39
2022-08-09T00:51:33.949Z,63.93
2022-08-09T00:57:10.690Z,63.35
2022-08-09T03:04:16.770Z,67.49
2022-08-09T03:09:16.071Z,67.49
2022-08-09T03:14:48.159Z,67.64
2022-08-09T03:20:43.388Z,0.00
2022-08-09T03:26:14.965Z,67.41
2022-08-09T03:31:59.502Z,67.36
2022-08-09T03:37:54.586Z,67.43
2022-08-09T03:42:50.364Z,67.54
2022-08-09T03:48:30.609Z,67.56
2022-08-09T03:53:54.048Z,67.69
2022-08-09T03:59:27.246Z,67.72
2022-08-09T04:04:58.432Z,67.88
2022-08-09T04:10:30.510Z,67.62
2022-08-09T04:16:20.256Z,67.78
2022-08-09T04:21:38.470Z,67.72
2022-08-09T04:27:05.225Z,67.47
2022-08-09T04:32:38.562Z,66.36
2022-08-09T04:38:09.096Z,65.96
2022-08-09T04:43:53.650Z,64.06
2022-08-09T04:49:14.559Z,63.21
2022-08-09T04:54:45.018Z,61.25
2022-08-09T05:00:17.244Z,60.84
2022-08-09T05:05:52.070Z,59.95
2022-08-09T05:11:21.214Z,60.24
2022-08-09T05:16:59.564Z,61.02
2022-08-09T05:22:33.227Z,61.24
2022-08-09T05:27:57.859Z,62.02
2022-08-09T05:33:33.164Z,62.07
2022-08-09T05:39:01.566Z,62.33
2022-08-09T05:44:34.889Z,61.51
2022-08-09T05:50:25.804Z,57.35
2022-08-09T05:55:36.889Z,55.10
2022-08-09T06:01:08.807Z,52.03
2022-08-09T06:06:45.141Z,50.32
2022-08-09T06:12:12.691Z,46.48
2022-08-09T06:17:44.573Z,46.82
2022-08-09T06:23:16.395Z,45.21
2022-08-09T06:28:47.913Z,44.03
2022-08-09T06:34:19.981Z,43.24
2022-08-09T06:39:59.848Z,42.58
2022-08-09T06:46:06.940Z,40.77
2022-08-09T06:50:55.103Z,40.04
2022-08-09T06:56:31.154Z,39.64
2022-08-09T07:02:03.589Z,38.83
2022-08-09T07:08:00.551Z,38.57
2022-08-09T07:13:18.563Z,37.29
2022-08-09T07:18:34.203Z,36.46
2022-08-09T07:24:06.277Z,36.15
2022-08-09T07:29:42.888Z,34.72
2022-08-09T07:35:10.719Z,35.51
2022-08-09T07:41:08.331Z,33.36
2022-08-09T07:46:13.248Z,33.35
2022-08-09T07:52:06.122Z,33.72
2022-08-09T07:57:17.435Z,33.88
2022-08-09T08:02:49.248Z,34.25
2022-08-09T08:09:01.718Z,34.05
2022-08-09T08:13:56.891Z,33.54
2022-08-09T08:19:29.221Z,33.18
2022-08-09T08:30:26.840Z,32.18
2022-08-09T08:36:00.435Z,32.42
2022-08-09T08:41:42.026Z,32.66
2022-08-09T08:47:04.485Z,32.61
2022-08-09T08:58:05.483Z,30.49
2022-08-09T09:03:37.840Z,30.77
2022-08-09T09:09:21.251Z,30.66
2022-08-09T09:14:41.043Z,31.05
2022-08-09T09:20:15.545Z,32.29
2022-08-09T09:26:01.380Z,31.94
2022-08-09T09:31:17.489Z,31.90
2022-08-09T09:36:53.253Z,31.86
2022-08-09T09:42:21.347Z,31.48
2022-08-09T09:47:56.366Z,31.33
2022-08-09T09:53:43.720Z,32.20
2022-08-09T09:58:56.222Z,33.42
2022-08-09T10:04:30.993Z,33.76
2022-08-09T10:10:00.112Z,34.66
2022-08-09T10:16:08.674Z,35.60
2022-08-09T10:21:03.810Z,35.46
2022-08-09T10:26:35.615Z,36.84
2022-08-09T10:37:39.516Z,35.68
2022-08-09T10:43:13.022Z,35.40
2022-08-09T10:48:43.942Z,35.98
2022-08-09T10:54:15.738Z,34.86
2022-08-09T10:59:57.423Z,34.50
2022-08-09T11:05:24.980Z,34.79
2022-08-09T11:10:54.684Z,34.77
2022-08-09T11:16:35.040Z,33.32
2022-08-09T11:22:05.453Z,34.96
2022-08-09T11:28:05.224Z,35.02
2022-08-09T11:32:59.658Z,34.53
2022-08-09T11:38:33.293Z,34.47
2022-08-09T11:44:03.197Z,34.63
2022-08-09T11:49:42.566Z,35.31
2022-08-09T11:55:06.876Z,35.10
2022-08-09T12:00:38.663Z,35.77
2022-08-09T12:06:10.721Z,35.89
2022-08-09T12:12:02.694Z,36.05
2022-08-09T12:17:33.893Z,35.95
2022-08-09T12:22:46.337Z,35.80
2022-08-09T12:29:11.816Z,36.07
2022-08-09T12:33:58.688Z,36.18
2022-08-09T12:39:21.975Z,36.70
2022-08-09T12:44:54.734Z,36.43
2022-08-09T12:50:26.053Z,36.92
2022-08-09T12:56:15.326Z,36.63
2022-08-09T13:01:29.820Z,36.60
2022-08-09T13:07:01.995Z,36.15
2022-08-09T13:12:40.047Z,36.11
2022-08-09T13:18:09.800Z,36.11
2022-08-09T13:24:16.696Z,36.31
2022-08-09T13:29:09.753Z,35.82
2022-08-09T13:34:42.004Z,35.66
2022-08-09T13:41:56.538Z,36.33
2022-08-09T13:46:42.194Z,36.41
2022-08-09T13:51:18.127Z,35.67
2022-08-09T13:56:50.487Z,35.39
2022-08-09T14:02:35.374Z,35.25
2022-08-09T14:07:55.023Z,35.31
2022-08-09T14:14:15.662Z,34.71
2022-08-09T14:18:59.683Z,34.38
2022-08-09T14:24:32.426Z,34.41
2022-08-09T14:30:33.989Z,33.87
2022-08-09T14:35:52.327Z,33.60
2022-08-09T14:41:34.580Z,33.81
2022-08-09T14:47:04.714Z,33.77
2022-08-09T14:52:11.463Z,33.63
2022-08-09T14:57:43.863Z,33.14
2022-08-09T15:03:16.651Z,33.57
2022-08-09T15:08:56.386Z,33.77
2022-08-09T15:14:19.604Z,34.22
2022-08-09T15:19:59.673Z,33.81
2022-08-09T15:25:38.893Z,32.47
2022-08-09T15:31:08.724Z,33.36
2022-08-09T15:36:29.413Z,33.09
2022-08-09T15:41:59.829Z,33.83
2022-08-09T15:47:47.211Z,34.11
2022-08-09T15:58:35.572Z,33.62
2022-08-09T16:04:13.596Z,33.91
2022-08-09T16:10:02.291Z,33.79
2022-08-09T16:16:10.256Z,34.63
2022-08-09T16:20:43.281Z,34.69
2022-08-09T16:26:19.941Z,34.73
2022-08-09T16:32:18.513Z,34.94
2022-08-09T16:34:02.510Z,34.95
2022-08-09T16:39:47.956Z,35.23
2022-08-09T16:45:03.862Z,35.50
2022-08-09T16:50:38.722Z,35.31
2022-08-09T16:56:09.861Z,35.27
2022-08-09T17:01:39.443Z,35.82
2022-08-09T17:08:46.352Z,35.84
2022-08-09T17:12:43.607Z,36.06
2022-08-09T17:18:15.496Z,36.08
2022-08-09T17:24:28.222Z,36.37
2022-08-09T17:29:20.237Z,36.47
2022-08-09T17:35:03.874Z,36.53
2022-08-09T17:40:26.211Z,36.71
2022-08-09T17:46:03.417Z,37.10
2022-08-09T17:51:25.778Z,37.09
2022-08-09T17:56:57.682Z,37.34
2022-08-09T18:02:33.537Z,37.44
2022-08-09T18:08:01.382Z,37.53
2022-08-09T18:13:40.037Z,38.01
2022-08-09T18:20:57.988Z,38.11
2022-08-09T18:24:36.148Z,38.49
2022-08-09T18:30:40.885Z,38.84
2022-08-09T18:35:59.496Z,39.16
2022-08-09T18:41:11.332Z,39.49
2022-08-09T18:46:49.541Z,39.88
2022-08-09T18:52:16.058Z,40.15
2022-08-09T18:57:46.581Z,40.91
2022-08-09T19:03:18.674Z,41.16
2022-08-09T19:08:55.430Z,41.54
2022-08-09T19:14:24.491Z,41.91
2022-08-09T19:20:00.597Z,42.59
2022-08-09T19:25:41.872Z,42.76
2022-08-09T19:30:56.627Z,43.12
2022-08-09T19:36:32.785Z,43.37
2022-08-09T19:42:00.281Z,43.80
2022-08-09T19:47:31.861Z,43.79
2022-08-09T19:53:04.165Z,44.42
2022-08-09T19:58:35.359Z,44.47
2022-08-09T20:04:18.958Z,44.69
2022-08-09T20:09:44.551Z,45.15
2022-08-09T20:16:34.223Z,45.45
2022-08-09T20:20:43.685Z,45.57
2022-08-09T20:26:15.612Z,45.88
2022-08-09T20:32:28.901Z,46.29
2022-08-09T20:37:21.440Z,46.81
2022-08-09T20:42:53.256Z,46.74
2022-08-09T20:48:22.219Z,46.93
2022-08-09T20:53:54.053Z,47.01
2022-08-09T21:00:22.266Z,47.19
2022-08-09T21:05:57.136Z,47.18
2022-08-09T21:10:30.502Z,47.32
2022-08-09T21:16:03.270Z,47.82
2022-08-09T21:21:53.121Z,48.15
2022-08-09T21:27:50.416Z,48.40
2022-08-09T21:32:38.702Z,49.23
2022-08-09T21:38:10.546Z,50.12
2022-08-09T21:43:58.101Z,51.02
2022-08-09T21:49:13.649Z,51.09
2022-08-09T21:54:46.036Z,51.58
2022-08-09T22:00:17.292Z,51.92
2022-08-09T22:05:51.219Z,51.68
2022-08-09T22:12:05.371Z,51.94
2022-08-09T22:16:52.635Z,52.02
2022-08-09T22:22:25.499Z,52.07
2022-08-09T22:27:57.328Z,52.31
2022-08-09T22:33:37.611Z,52.20
2022-08-09T22:39:01.426Z,52.70
2022-08-09T22:50:04.775Z,53.02
2022-08-09T22:56:29.431Z,53.12
2022-08-09T23:06:40.160Z,53.68
2022-08-09T23:12:11.970Z,53.78
2022-08-09T23:17:44.019Z,54.03
2022-08-09T23:23:18.314Z,54.15
2022-08-09T23:28:50.918Z,54.25
2022-08-09T23:34:22.564Z,55.01
2022-08-09T23:39:54.347Z,55.36
2022-08-09T23:45:37.984Z,55.35
2022-08-09T23:50:57.973Z,55.77
2022-08-09T23:56:52.776Z,56.87
